createdAt,value
2023-04-27T00:01:34.649Z,3.87
2023-04-27T00:04:01.747Z,3.60
2023-04-27T00:06:28.464Z,3.78
2023-04-27T00:08:54.887Z,3.31
2023-04-27T00:11:21.290Z,3.37
2023-04-27T00:13:48.384Z,3.54
2023-04-27T00:16:14.812Z,3.67
2023-04-27T00:18:41.423Z,3.70
2023-04-27T00:21:09.098Z,3.46
2023-04-27T00:23:35.936Z,3.43
2023-04-27T00:26:02.869Z,3.35
2023-04-27T00:28:29.263Z,3.50
2023-04-27T00:30:55.940Z,3.52
2023-04-27T00:33:22.350Z,3.31
2023-04-27T00:35:48.768Z,3.21
2023-04-27T00:38:15.163Z,3.24
2023-04-27T00:40:41.668Z,3.32
2023-04-27T00:43:08.040Z,3.12
2023-04-27T00:45:42.142Z,3.28
2023-04-27T00:48:09.446Z,3.16
2023-04-27T00:50:36.002Z,3.15
2023-04-27T00:53:02.549Z,3.12
2023-04-27T00:55:28.978Z,3.28
2023-04-27T00:57:55.367Z,3.29
2023-04-27T01:00:22.129Z,3.42
2023-04-27T01:02:49.473Z,3.35
2023-04-27T01:05:16.655Z,3.54
2023-04-27T01:07:43.046Z,3.56
2023-04-27T01:10:09.732Z,3.60
2023-04-27T01:12:36.200Z,3.45
2023-04-27T01:15:03.016Z,3.64
2023-04-27T01:17:29.397Z,3.85
2023-04-27T01:19:56.688Z,3.92
2023-04-27T01:22:23.118Z,3.99
2023-04-27T01:24:49.493Z,4.08
2023-04-27T01:27:15.890Z,4.13
2023-04-27T01:29:43.946Z,4.06
2023-04-27T01:32:10.501Z,3.99
2023-04-27T01:34:36.899Z,4.33
2023-04-27T01:37:03.877Z,4.16
2023-04-27T01:39:30.295Z,4.25
2023-04-27T01:41:58.381Z,4.36
2023-04-27T01:44:25.060Z,4.45
2023-04-27T01:46:51.555Z,4.51
2023-04-27T01:49:17.965Z,4.35
2023-04-27T01:51:44.331Z,4.34
2023-04-27T01:54:10.737Z,3.99
2023-04-27T01:56:37.133Z,4.32
2023-04-27T01:59:03.525Z,4.07
2023-04-27T02:01:31.383Z,4.12
2023-04-27T02:03:57.933Z,3.96
2023-04-27T02:06:24.526Z,4.05
2023-04-27T02:08:51.563Z,4.01
2023-04-27T02:11:17.930Z,3.97
2023-04-27T02:13:44.294Z,4.02
2023-04-27T02:16:10.716Z,3.84
2023-04-27T02:18:38.451Z,3.84
2023-04-27T02:21:11.014Z,3.76
2023-04-27T02:23:37.436Z,3.68
2023-04-27T02:26:04.721Z,3.60
2023-04-27T02:28:31.334Z,3.65
2023-04-27T02:30:58.645Z,3.77
2023-04-27T02:33:25.191Z,3.45
2023-04-27T02:35:51.581Z,3.46
2023-04-27T02:38:17.953Z,3.58
2023-04-27T02:40:44.317Z,3.45
2023-04-27T02:43:10.703Z,3.58
2023-04-27T02:45:38.333Z,3.59
2023-04-27T02:48:04.909Z,3.58
2023-04-27T02:50:31.366Z,3.57
2023-04-27T02:52:57.717Z,3.48
2023-04-27T02:55:24.083Z,3.49
2023-04-27T02:57:50.561Z,3.32
2023-04-27T03:00:17.173Z,3.39
2023-04-27T03:02:43.670Z,3.29
2023-04-27T03:05:11.060Z,3.59
2023-04-27T03:07:37.500Z,3.36
2023-04-27T03:10:04.296Z,3.28
2023-04-27T03:12:30.697Z,3.25
2023-04-27T03:14:57.211Z,3.28
2023-04-27T03:17:23.634Z,3.43
2023-04-27T03:19:50.430Z,3.21
2023-04-27T03:22:16.816Z,3.45
2023-04-27T03:24:43.208Z,3.39
2023-04-27T03:27:10.071Z,3.42
2023-04-27T03:29:36.415Z,3.37
2023-04-27T03:32:04.370Z,3.24
2023-04-27T03:34:31.333Z,3.28
2023-04-27T03:36:57.867Z,3.14
2023-04-27T03:39:24.342Z,2.90
2023-04-27T03:41:50.812Z,2.83
2023-04-27T03:44:17.181Z,2.83
2023-04-27T03:46:43.544Z,2.96
2023-04-27T03:49:09.916Z,2.87
2023-04-27T03:51:38.053Z,2.93
2023-04-27T03:54:04.480Z,2.85
2023-04-27T03:56:30.885Z,2.79
2023-04-27T03:58:57.260Z,3.01
2023-04-27T04:01:24.812Z,3.01
2023-04-27T04:03:51.713Z,2.96
2023-04-27T04:06:18.212Z,3.08
2023-04-27T04:08:44.639Z,2.99
2023-04-27T04:11:11.029Z,2.73
2023-04-27T04:13:37.404Z,2.78
2023-04-27T04:16:05.812Z,2.82
2023-04-27T04:18:32.593Z,2.78
2023-04-27T04:20:59.068Z,2.81
2023-04-27T04:23:25.920Z,2.81
2023-04-27T04:25:52.320Z,3.05
2023-04-27T04:28:18.707Z,3.10
2023-04-27T04:30:45.647Z,3.15
2023-04-27T04:33:12.184Z,3.19
2023-04-27T04:35:39.007Z,3.24
2023-04-27T04:38:05.874Z,3.37
2023-04-27T04:40:32.285Z,3.25
2023-04-27T04:42:58.637Z,3.59
2023-04-27T04:45:25.133Z,3.63
2023-04-27T04:47:54.379Z,3.98
2023-04-27T04:50:20.913Z,4.39
2023-04-27T04:52:47.290Z,4.55
2023-04-27T04:55:14.496Z,4.84
2023-04-27T04:57:40.901Z,5.40
2023-04-27T05:00:13.817Z,5.70
2023-04-27T05:02:41.161Z,6.07
2023-04-27T05:05:08.374Z,6.34
2023-04-27T05:07:35.264Z,6.10
2023-04-27T05:10:01.659Z,6.66
2023-04-27T05:12:28.011Z,6.82
2023-04-27T05:14:54.405Z,6.92
2023-04-27T05:17:20.887Z,7.11
2023-04-27T05:19:47.629Z,7.62
2023-04-27T05:22:14.004Z,7.48
2023-04-27T05:24:40.832Z,7.48
2023-04-27T05:27:07.431Z,7.91
2023-04-27T05:29:33.825Z,7.63
2023-04-27T05:32:00.409Z,7.69
2023-04-27T05:34:27.031Z,7.98
2023-04-27T05:36:53.395Z,7.94
2023-04-27T05:39:19.782Z,8.63
2023-04-27T05:41:46.214Z,8.89
2023-04-27T05:44:12.685Z,9.27
2023-04-27T05:46:39.097Z,9.58
2023-04-27T05:49:05.591Z,9.70
2023-04-27T05:51:33.330Z,9.47
2023-04-27T05:54:01.745Z,9.24
2023-04-27T05:56:28.080Z,9.94
2023-04-27T05:58:54.423Z,10.45
2023-04-27T06:01:21.591Z,10.21
2023-04-27T06:03:48.088Z,10.34
2023-04-27T06:06:14.806Z,10.42
2023-04-27T06:11:32.311Z,10.28
2023-04-27T06:13:58.700Z,11.34
2023-04-27T06:16:25.301Z,10.98
2023-04-27T06:18:51.979Z,11.05
2023-04-27T06:21:18.362Z,11.66
2023-04-27T06:23:44.750Z,11.68
2023-04-27T06:26:11.518Z,11.59
2023-04-27T06:28:38.089Z,11.75
2023-04-27T06:31:05.038Z,11.59
2023-04-27T06:33:31.448Z,12.30
2023-04-27T06:35:58.338Z,11.96
2023-04-27T06:38:24.681Z,12.58
2023-04-27T06:40:53.031Z,12.63
2023-04-27T06:43:19.478Z,12.84
2023-04-27T06:45:46.054Z,12.47
2023-04-27T06:48:12.555Z,13.07
2023-04-27T06:50:38.962Z,13.17
2023-04-27T06:53:05.331Z,13.84
2023-04-27T06:55:31.756Z,14.05
2023-04-27T06:57:58.118Z,13.87
2023-04-27T07:00:24.832Z,14.02
2023-04-27T07:02:51.636Z,13.71
2023-04-27T07:05:18.376Z,13.63
2023-04-27T07:07:44.777Z,13.97
2023-04-27T07:10:11.212Z,13.92
2023-04-27T07:12:38.412Z,14.25
2023-04-27T07:15:06.492Z,13.72
2023-04-27T07:17:33.132Z,14.11
2023-04-27T07:20:01.572Z,14.23
2023-04-27T07:22:28.893Z,14.32
2023-04-27T07:24:55.262Z,14.26
2023-04-27T07:27:22.247Z,14.44
2023-04-27T07:29:48.667Z,14.55
2023-04-27T07:32:15.200Z,13.94
2023-04-27T07:34:52.766Z,14.80
2023-04-27T07:37:20.942Z,14.79
2023-04-27T07:39:48.999Z,14.85
2023-04-27T07:42:15.997Z,14.72
2023-04-27T07:44:42.614Z,14.37
2023-04-27T07:47:09.188Z,14.94
2023-04-27T07:49:36.196Z,15.11
2023-04-27T07:52:02.972Z,15.36
2023-04-27T07:54:29.654Z,15.56
2023-04-27T07:56:56.142Z,15.04
2023-04-27T07:59:22.539Z,15.25
2023-04-27T08:01:49.042Z,14.72
2023-04-27T08:04:16.324Z,15.26
2023-04-27T08:06:43.441Z,15.06
2023-04-27T08:09:10.093Z,15.66
2023-04-27T08:11:36.644Z,14.97
2023-04-27T08:14:03.085Z,15.04
2023-04-27T08:16:29.644Z,15.75
2023-04-27T08:18:56.537Z,15.22
2023-04-27T08:21:23.882Z,15.48
2023-04-27T08:23:51.498Z,15.47
2023-04-27T08:26:17.941Z,16.76
2023-04-27T08:28:44.306Z,16.34
2023-04-27T08:31:11.139Z,16.08
2023-04-27T08:33:37.544Z,17.12
2023-04-27T08:36:04.235Z,16.99
2023-04-27T08:38:30.609Z,16.24
2023-04-27T08:40:59.291Z,16.77
2023-04-27T08:43:27.391Z,16.54
2023-04-27T08:45:53.832Z,16.20
2023-04-27T08:48:20.672Z,16.17
2023-04-27T08:50:50.334Z,16.92
2023-04-27T08:53:24.262Z,16.55
2023-04-27T08:55:51.321Z,16.68
2023-04-27T08:58:17.744Z,17.20
2023-04-27T09:00:45.385Z,16.30
2023-04-27T09:03:27.326Z,17.40
2023-04-27T09:06:04.314Z,17.70
2023-04-27T09:08:45.740Z,17.67
2023-04-27T09:11:13.208Z,17.24
2023-04-27T09:13:41.901Z,18.10
2023-04-27T09:16:08.966Z,18.31
2023-04-27T09:18:37.851Z,16.82
2023-04-27T09:21:04.429Z,16.46
2023-04-27T09:23:32.551Z,16.61
2023-04-27T09:26:09.658Z,16.30
2023-04-27T09:28:39.599Z,17.11
2023-04-27T09:31:09.053Z,16.14
2023-04-27T09:33:36.069Z,15.97
2023-04-27T09:36:05.422Z,17.16
2023-04-27T09:38:32.636Z,17.09
2023-04-27T09:41:00.014Z,16.92
2023-04-27T09:43:28.828Z,17.45
2023-04-27T09:45:56.360Z,17.82
2023-04-27T09:48:23.738Z,18.23
2023-04-27T09:50:51.564Z,17.58
2023-04-27T09:53:25.348Z,19.04
2023-04-27T09:56:13.603Z,16.47
2023-04-27T09:58:59.547Z,17.36
2023-04-27T10:01:43.482Z,17.10
2023-04-27T10:04:32.050Z,18.11
2023-04-27T10:07:03.641Z,17.71
2023-04-27T10:09:51.768Z,17.13
2023-04-27T10:12:23.204Z,16.51
2023-04-27T10:14:51.668Z,17.65
2023-04-27T10:17:18.632Z,17.86
2023-04-27T10:20:00.059Z,17.61
2023-04-27T10:22:40.546Z,17.00
2023-04-27T10:25:14.674Z,17.57
2023-04-27T10:27:41.152Z,18.14
2023-04-27T10:30:12.223Z,19.21
2023-04-27T10:32:38.786Z,19.80
2023-04-27T10:35:09.347Z,18.61
2023-04-27T10:37:43.150Z,18.51
2023-04-27T10:40:17.322Z,17.69
2023-04-27T10:42:49.407Z,17.24
2023-04-27T10:45:28.511Z,17.67
2023-04-27T10:48:01.364Z,16.77
2023-04-27T10:50:28.293Z,16.67
2023-04-27T10:52:54.706Z,16.60
2023-04-27T10:55:22.839Z,16.51
2023-04-27T10:57:54.101Z,16.55
2023-04-27T11:00:36.854Z,15.41
2023-04-27T11:03:18.530Z,15.65
2023-04-27T11:05:46.724Z,15.04
2023-04-27T11:08:18.280Z,15.59
2023-04-27T11:10:50.802Z,17.12
2023-04-27T11:13:22.370Z,17.22
2023-04-27T11:15:51.116Z,15.41
2023-04-27T11:18:20.526Z,16.45
2023-04-27T11:20:50.375Z,14.75
2023-04-27T11:23:28.921Z,14.74
2023-04-27T11:25:56.660Z,14.35
2023-04-27T11:28:24.352Z,14.25
2023-04-27T11:30:59.209Z,14.73
2023-04-27T11:33:27.047Z,14.85
2023-04-27T11:35:54.543Z,14.77
2023-04-27T11:38:22.000Z,15.03
2023-04-27T11:41:07.586Z,15.53
2023-04-27T11:43:34.838Z,15.14
2023-04-27T11:46:05.887Z,15.34
2023-04-27T11:48:32.376Z,15.21
2023-04-27T11:51:01.774Z,15.20
2023-04-27T11:53:39.663Z,14.62
2023-04-27T11:56:10.936Z,14.73
2023-04-27T11:58:39.141Z,14.95
2023-04-27T12:01:06.708Z,14.61
2023-04-27T12:03:33.904Z,14.32
2023-04-27T12:06:16.190Z,14.42
2023-04-27T12:08:47.218Z,14.02
2023-04-27T12:11:13.651Z,14.39
2023-04-27T12:13:40.689Z,14.20
2023-04-27T12:16:07.535Z,14.90
2023-04-27T12:18:34.030Z,15.19
2023-04-27T12:21:03.138Z,15.53
2023-04-27T12:23:29.983Z,15.26
2023-04-27T12:25:56.474Z,15.32
2023-04-27T12:28:23.356Z,16.66
2023-04-27T12:30:49.863Z,16.00
2023-04-27T12:33:16.620Z,15.81
2023-04-27T12:35:43.119Z,15.80
2023-04-27T12:38:09.533Z,16.91
2023-04-27T12:40:36.022Z,16.81
2023-04-27T12:43:02.410Z,16.01
2023-04-27T12:45:28.819Z,15.54
2023-04-27T12:48:03.312Z,16.09
2023-04-27T12:50:36.687Z,15.26
2023-04-27T12:53:03.494Z,15.72
2023-04-27T12:55:33.758Z,16.11
2023-04-27T12:58:01.021Z,15.60
2023-04-27T13:00:27.669Z,15.19
2023-04-27T13:02:54.281Z,15.65
2023-04-27T13:05:22.364Z,15.99
2023-04-27T13:07:49.035Z,15.48
2023-04-27T13:10:15.818Z,14.86
2023-04-27T13:12:42.225Z,14.68
2023-04-27T13:15:09.445Z,14.94
2023-04-27T13:17:35.837Z,15.35
2023-04-27T13:20:02.342Z,15.90
2023-04-27T13:22:28.776Z,15.44
2023-04-27T13:24:55.540Z,15.61
2023-04-27T13:27:25.058Z,14.98
2023-04-27T13:29:51.424Z,15.86
2023-04-27T13:32:18.548Z,15.67
2023-04-27T13:34:45.056Z,14.95
2023-04-27T13:37:11.442Z,15.62
2023-04-27T13:39:37.987Z,15.96
2023-04-27T13:42:04.486Z,15.79
2023-04-27T13:44:32.347Z,15.73
2023-04-27T13:46:58.769Z,15.67
2023-04-27T13:49:25.909Z,16.10
2023-04-27T13:51:52.405Z,15.99
2023-04-27T13:54:18.943Z,15.85
2023-04-27T13:56:45.615Z,15.43
2023-04-27T13:59:12.216Z,16.15
2023-04-27T14:01:39.922Z,16.45
2023-04-27T14:04:06.404Z,17.44
2023-04-27T14:06:33.003Z,17.86
2023-04-27T14:08:59.407Z,17.21
2023-04-27T14:11:26.213Z,16.47
2023-04-27T14:13:52.618Z,16.52
2023-04-27T14:16:19.080Z,16.47
2023-04-27T14:18:45.488Z,15.55
2023-04-27T14:21:11.889Z,15.85
2023-04-27T14:23:38.308Z,15.27
2023-04-27T14:26:05.768Z,15.81
2023-04-27T14:28:32.185Z,15.72
2023-04-27T14:30:58.574Z,15.37
2023-04-27T14:33:25.336Z,15.76
2023-04-27T14:35:51.702Z,15.65
2023-04-27T14:38:18.093Z,15.68
2023-04-27T14:40:44.609Z,15.15
2023-04-27T14:43:11.074Z,15.70
2023-04-27T14:45:48.032Z,15.90
2023-04-27T14:48:17.925Z,16.09
2023-04-27T14:50:44.414Z,16.98
2023-04-27T14:53:10.833Z,16.65
2023-04-27T14:55:37.210Z,16.28
2023-04-27T14:58:03.566Z,15.83
2023-04-27T15:00:30.007Z,16.04
2023-04-27T15:02:56.476Z,16.49
2023-04-27T15:05:22.978Z,16.03
2023-04-27T15:07:49.344Z,15.85
2023-04-27T15:10:15.832Z,16.42
2023-04-27T15:12:42.350Z,16.27
2023-04-27T15:15:10.467Z,16.35
2023-04-27T15:17:37.116Z,16.27
2023-04-27T15:20:05.623Z,16.19
2023-04-27T15:22:32.197Z,15.68
2023-04-27T15:24:58.565Z,15.90
2023-04-27T15:27:25.862Z,16.07
2023-04-27T15:29:54.384Z,15.77
2023-04-27T15:32:23.221Z,16.03
2023-04-27T15:34:49.972Z,15.68
2023-04-27T15:37:16.435Z,15.47
2023-04-27T15:39:42.898Z,15.78
2023-04-27T15:42:09.279Z,15.51
2023-04-27T15:44:36.229Z,15.10
2023-04-27T15:47:03.216Z,14.71
2023-04-27T15:49:30.348Z,15.16
2023-04-27T15:51:56.717Z,15.05
2023-04-27T15:54:23.507Z,14.92
2023-04-27T15:56:49.909Z,15.37
2023-04-27T15:59:16.593Z,15.09
2023-04-27T16:01:43.119Z,15.12
2023-04-27T16:04:09.930Z,14.97
2023-04-27T16:06:36.728Z,14.91
2023-04-27T16:09:03.816Z,14.45
2023-04-27T16:11:31.452Z,14.24
2023-04-27T16:13:58.277Z,14.72
2023-04-27T16:16:24.991Z,14.15
2023-04-27T16:18:51.388Z,14.27
2023-04-27T16:21:17.836Z,13.85
2023-04-27T16:23:44.228Z,13.98
2023-04-27T16:26:11.054Z,14.25
2023-04-27T16:28:37.453Z,14.14
2023-04-27T16:31:04.678Z,13.64
2023-04-27T16:33:31.285Z,13.62
2023-04-27T16:35:57.735Z,13.51
2023-04-27T16:38:24.332Z,13.28
2023-04-27T16:40:51.965Z,13.21
2023-04-27T16:43:18.345Z,13.41
2023-04-27T16:45:44.738Z,13.52
2023-04-27T16:48:11.978Z,13.41
2023-04-27T16:50:38.938Z,13.35
2023-04-27T16:53:10.896Z,13.29
2023-04-27T16:55:37.390Z,13.26
2023-04-27T16:58:03.798Z,13.17
2023-04-27T17:00:30.443Z,13.21
2023-04-27T17:02:56.987Z,13.04
2023-04-27T17:05:23.498Z,12.98
2023-04-27T17:07:49.937Z,12.82
2023-04-27T17:10:16.832Z,13.30
2023-04-27T17:12:43.179Z,12.97
2023-04-27T17:15:11.034Z,13.01
2023-04-27T17:17:37.711Z,12.94
2023-04-27T17:20:06.341Z,12.86
2023-04-27T17:22:33.039Z,12.98
2023-04-27T17:24:59.461Z,12.58
2023-04-27T17:27:26.020Z,12.60
2023-04-27T17:29:54.137Z,12.67
2023-04-27T17:32:20.566Z,12.92
2023-04-27T17:34:47.158Z,12.74
2023-04-27T17:37:14.836Z,12.43
2023-04-27T17:39:41.440Z,12.61
2023-04-27T17:42:12.156Z,12.46
2023-04-27T17:44:39.533Z,12.51
2023-04-27T17:47:05.979Z,12.20
2023-04-27T17:49:32.876Z,12.42
2023-04-27T17:51:59.291Z,12.38
2023-04-27T17:54:29.438Z,12.20
2023-04-27T17:56:56.473Z,12.07
2023-04-27T17:59:23.038Z,11.81
2023-04-27T18:01:49.483Z,11.92
2023-04-27T18:04:16.140Z,11.91
2023-04-27T18:06:42.590Z,11.92
2023-04-27T18:09:08.988Z,12.07
2023-04-27T18:11:36.231Z,12.12
2023-04-27T18:14:03.642Z,11.86
2023-04-27T18:16:30.096Z,11.73
2023-04-27T18:18:56.515Z,11.86
2023-04-27T18:21:22.952Z,11.79
2023-04-27T18:23:49.346Z,12.03
2023-04-27T18:26:16.522Z,11.77
2023-04-27T18:28:43.042Z,11.70
2023-04-27T18:31:17.080Z,11.72
2023-04-27T18:33:44.484Z,11.55
2023-04-27T18:36:10.918Z,11.47
2023-04-27T18:38:37.382Z,11.55
2023-04-27T18:41:04.593Z,11.37
2023-04-27T18:43:31.240Z,11.45
2023-04-27T18:45:57.698Z,11.22
2023-04-27T18:48:24.178Z,11.29
2023-04-27T18:50:50.523Z,11.21
2023-04-27T18:53:16.963Z,10.95
2023-04-27T18:55:43.419Z,11.06
2023-04-27T18:58:10.219Z,11.14
2023-04-27T19:00:37.810Z,11.07
2023-04-27T19:03:05.091Z,11.05
2023-04-27T19:05:31.779Z,11.06
2023-04-27T19:07:58.172Z,10.96
2023-04-27T19:10:24.671Z,11.29
2023-04-27T19:12:51.253Z,11.19
2023-04-27T19:15:17.629Z,11.01
2023-04-27T19:17:44.000Z,10.69
2023-04-27T19:20:10.872Z,10.83
2023-04-27T19:22:37.365Z,10.78
2023-04-27T19:25:04.454Z,10.52
2023-04-27T19:27:31.012Z,10.61
2023-04-27T19:29:58.632Z,10.51
2023-04-27T19:32:27.318Z,10.70
2023-04-27T19:34:56.008Z,10.57
2023-04-27T19:37:23.538Z,10.48
2023-04-27T19:39:50.095Z,10.78
2023-04-27T19:42:16.836Z,10.34
2023-04-27T19:44:43.256Z,10.53
2023-04-27T19:47:12.568Z,10.22
2023-04-27T19:49:39.412Z,10.37
2023-04-27T19:52:06.692Z,10.26
2023-04-27T19:54:33.133Z,10.44
2023-04-27T19:56:59.595Z,10.26
2023-04-27T19:59:27.118Z,10.17
2023-04-27T20:01:53.547Z,10.23
2023-04-27T20:04:20.765Z,10.22
2023-04-27T20:06:47.609Z,10.15
2023-04-27T20:09:13.989Z,10.27
2023-04-27T20:11:40.523Z,10.07
2023-04-27T20:14:06.925Z,10.20
2023-04-27T20:16:33.421Z,10.02
2023-04-27T20:18:59.853Z,10.06
2023-04-27T20:21:27.915Z,9.97
2023-04-27T20:23:54.329Z,9.99
2023-04-27T20:26:21.041Z,9.82
2023-04-27T20:28:48.473Z,9.87
2023-04-27T20:31:15.459Z,9.68
2023-04-27T20:33:41.846Z,9.95
2023-04-27T20:36:17.158Z,9.73
2023-04-27T20:38:44.986Z,9.70
2023-04-27T20:41:12.351Z,9.80
2023-04-27T20:43:41.943Z,9.74
2023-04-27T20:46:10.646Z,9.69
2023-04-27T20:48:37.746Z,9.73
2023-04-27T20:51:04.490Z,9.74
2023-04-27T20:53:31.132Z,9.80
2023-04-27T20:55:57.793Z,9.64
2023-04-27T20:58:24.836Z,9.64
2023-04-27T21:00:51.494Z,9.63
2023-04-27T21:03:18.033Z,9.48
2023-04-27T21:05:45.363Z,9.58
2023-04-27T21:08:11.749Z,9.58
2023-04-27T21:10:38.161Z,9.43
2023-04-27T21:13:04.551Z,9.45
2023-04-27T21:15:31.006Z,9.46
2023-04-27T21:17:57.429Z,9.61
2023-04-27T21:20:23.844Z,9.56
2023-04-27T21:22:50.284Z,9.59
2023-04-27T21:25:16.623Z,9.36
2023-04-27T21:27:43.005Z,9.14
2023-04-27T21:30:10.075Z,9.30
2023-04-27T21:32:36.520Z,9.25
2023-04-27T21:35:03.065Z,9.26
2023-04-27T21:37:29.534Z,9.14
2023-04-27T21:39:55.956Z,9.11
2023-04-27T21:42:22.322Z,9.19
2023-04-27T21:44:49.051Z,9.25
2023-04-27T21:47:15.421Z,9.23
2023-04-27T21:49:41.789Z,9.14
2023-04-27T21:52:08.166Z,9.15
2023-04-27T21:54:34.551Z,9.01
2023-04-27T21:57:00.912Z,8.90
2023-04-27T21:59:27.404Z,8.93
2023-04-27T22:01:53.877Z,9.00
2023-04-27T22:04:20.522Z,8.81
2023-04-27T22:06:47.779Z,8.98
2023-04-27T22:09:14.246Z,8.76
2023-04-27T22:11:41.118Z,8.71
2023-04-27T22:14:07.553Z,8.80
2023-04-27T22:16:34.025Z,8.76
2023-04-27T22:19:00.399Z,8.64
2023-04-27T22:21:28.808Z,8.64
2023-04-27T22:23:55.288Z,8.33
2023-04-27T22:26:21.741Z,8.50
2023-04-27T22:28:48.413Z,8.47
2023-04-27T22:31:14.861Z,8.56
2023-04-27T22:33:41.305Z,8.26
2023-04-27T22:36:08.038Z,8.35
2023-04-27T22:38:34.451Z,8.29
2023-04-27T22:41:00.870Z,8.45
2023-04-27T22:43:27.256Z,8.45
2023-04-27T22:45:53.620Z,8.43
2023-04-27T22:48:20.014Z,8.18
2023-04-27T22:50:46.814Z,8.26
2023-04-27T22:53:13.289Z,8.14
2023-04-27T22:55:39.665Z,8.26
2023-04-27T22:58:06.088Z,8.06
2023-04-27T23:00:32.547Z,8.01
2023-04-27T23:02:59.096Z,7.94
2023-04-27T23:05:25.618Z,7.82
2023-04-27T23:07:51.989Z,7.85
2023-04-27T23:10:18.859Z,7.94
2023-04-27T23:12:45.340Z,7.99
2023-04-27T23:15:11.807Z,7.81
2023-04-27T23:17:38.438Z,7.84
2023-04-27T23:20:11.141Z,7.80
2023-04-27T23:22:43.856Z,7.89
2023-04-27T23:25:11.286Z,7.74
2023-04-27T23:27:37.871Z,7.84
2023-04-27T23:30:04.769Z,7.98
2023-04-27T23:32:31.208Z,7.87
2023-04-27T23:34:57.575Z,8.18
2023-04-27T23:37:24.842Z,8.13
2023-04-27T23:39:51.260Z,7.90
2023-04-27T23:42:17.604Z,7.93
2023-04-27T23:44:44.025Z,7.80
2023-04-27T23:47:10.635Z,8.14
2023-04-27T23:49:37.188Z,7.97
2023-04-27T23:52:03.644Z,8.11
2023-04-27T23:54:32.068Z,7.97
2023-04-27T23:56:58.601Z,7.97
2023-04-27T23:59:25.025Z,8.01
